Aérodrome :
LOGIN :

S'inscrire | Disclaimer

   EN    FR    IT 

 










Légende :    VFR   VFR Marginal   IFR   IFR Intensif   IFR Très Intensif
Visi : 
Plafond : 
>= 8 km
>= 3000ft
5 à 8 km
1000 à 3000 ft
1500m à 5 km
500 à 1000 ft
800 à 1500m
200 à 500 ft
< 800m
< 200 ft
Symboles :   Orages  Brouillard  Fortes neiges  Fortes précipitations  Vent > 20 kt
SIGMETs :   Divers  Orages  Givrage  Turbulence  Onde Orograph.  Cendres Volcan.







- Altitude de l'aérodrome : 25 ft
- Code IATA : QCY


EGXC - RAF Coningsby

DERNIER METAR :
  • 192250Z 16010KT 9999 -RA SCT018 BKN080 OVC110 15/13 Q0997 WHT

METARs EXPIRÉS :
  • 192150Z 14009KT 9999 -RA BKN016 OVC070 15/13 Q0997 WHT
  • 192050Z 15010KT CAVOK 15/13 Q0998 BLU

TAF TAF EGXC
Valide du 19 à 21h jusqu'au 20 à 15h UTC


191938Z 1921/2015 16010KT 9999 FEW020 BKN045
PROB40
TEMPO 1921/2001 7000 -RA BKN012
BECMG 2003/2005 BKN008
PROB40
TEMPO 2005/2010 4000 RA SCT004 BKN010
BECMG 2010/2013 SCT025
Pas de NOTAMs connus pour ce terrain.
2 SIGMETs publiés pour la FIR London (EGTT) :
 
Turbulence forte
EGTT SIGMET 04 VALID 192330/200330 EGRR
EGTT LONDON FIR SEV TURB FCST WI N5000 W00015 - N5000 W00200 - N4928 W00500 - N5032 W00600 - N5040 E00128 - N5000 W00015 SFC/FL060 MOV E 15KT WKN=
Turbulence forte
EGTT SIGMET 03 VALID 192020/192330 EGRR
EGTT LONDON FIR SEV TURB FCST WI N5149 W00608 - N5024 W00401 - N5034 W00229 - N5000 W00200 - N4919 W00538 - N5053 W00720 - N5149 W00608 SFC/FL060 MOV E 20KT NC=



MET'MAP, la Météo Aéronautique d'un coup d'oeil ! - Copyright ORBIFLY Décembre 2007 - Disclaimer

ORBIFLY MET'MAP TEAM :

Programmation & Développement : Alexandra Zaïnal
Conception & Développement : Baudouin d'Aumeries
Co-Programmation & Développement : Marc-Olivier Méhu
Soutien technique & logistique : Manuel Goepfert

Contact : metmap@orbifly.com




SOURCES & CREDITS :

   NOAA